createdAt,value
2019-06-27T00:04:57.085Z,70.7
2019-06-27T00:09:57.636Z,70.8
2019-06-27T00:14:57.517Z,70.1
2019-06-27T00:19:57.689Z,70.7
2019-06-27T00:24:56.853Z,71.3
2019-06-27T00:29:57.387Z,70.7
2019-06-27T00:34:57.018Z,70.7
2019-06-27T00:39:57.789Z,70.9
2019-06-27T00:44:57.114Z,70.5
2019-06-27T00:49:56.855Z,70.4
2019-06-27T00:54:57.317Z,70.6
2019-06-27T00:59:57.534Z,70.8
2019-06-27T01:04:57.145Z,70.7
2019-06-27T01:10:00.289Z,70.8
2019-06-27T01:14:56.981Z,71
2019-06-27T01:19:56.670Z,71.1
2019-06-27T01:24:57.766Z,70.8
2019-06-27T01:29:57.328Z,71
2019-06-27T01:34:57.211Z,70.5
2019-06-27T01:39:57.093Z,70.8
2019-06-27T01:44:56.767Z,70.5
2019-06-27T01:49:56.739Z,70.7
2019-06-27T01:54:57.035Z,69.9
2019-06-27T01:59:56.720Z,70.4
2019-06-27T02:04:56.525Z,69.8
2019-06-27T02:09:56.308Z,69.5
2019-06-27T02:14:56.549Z,69.4
2019-06-27T02:19:56.650Z,69.6
2019-06-27T02:24:56.963Z,69.8
2019-06-27T02:29:56.493Z,69.8
2019-06-27T02:34:56.638Z,69.7
2019-06-27T02:39:56.373Z,69.7
2019-06-27T02:44:56.538Z,69.7
2019-06-27T02:49:56.491Z,69.5
2019-06-27T02:54:56.260Z,69.3
2019-06-27T02:59:56.225Z,69.6
2019-06-27T03:04:56.492Z,70
2019-06-27T03:09:57.571Z,69.8
2019-06-27T03:14:56.189Z,70.1
2019-06-27T03:19:56.370Z,70.4
2019-06-27T03:24:56.186Z,70.8
2019-06-27T03:29:56.666Z,71
2019-06-27T03:34:56.441Z,70.5
2019-06-27T03:39:56.047Z,70.5
2019-06-27T03:44:56.157Z,70.3
2019-06-27T03:49:56.411Z,69.9
2019-06-27T03:54:56.481Z,70.8
2019-06-27T03:59:56.471Z,70.9
2019-06-27T04:04:56.358Z,70.7
2019-06-27T04:09:56.332Z,70.8
2019-06-27T04:14:56.080Z,71
2019-06-27T04:19:56.667Z,70.5
2019-06-27T04:24:56.225Z,70.8
2019-06-27T04:29:56.209Z,71
2019-06-27T04:34:56.358Z,70.6
2019-06-27T04:39:56.274Z,70.9
2019-06-27T04:44:56.287Z,70.8
2019-06-27T04:49:56.574Z,70.6
2019-06-27T04:54:56.573Z,70
2019-06-27T04:59:56.239Z,69.8
2019-06-27T05:04:55.944Z,70.1
2019-06-27T05:09:56.345Z,70.1
2019-06-27T05:14:56.802Z,69.9
2019-06-27T05:19:57.041Z,69.6
2019-06-27T05:24:56.092Z,69.5
2019-06-27T05:30:08.569Z,69.6
2019-06-27T05:34:56.310Z,69
2019-06-27T05:39:56.035Z,68.2
2019-06-27T05:44:56.071Z,67.5
2019-06-27T05:49:56.242Z,67.3
2019-06-27T05:54:56.203Z,67.2
2019-06-27T05:59:55.960Z,66.5
2019-06-27T06:04:55.977Z,65.8
2019-06-27T06:09:55.945Z,66.2
2019-06-27T06:14:55.854Z,65.1
2019-06-27T06:19:56.110Z,65.6
2019-06-27T06:24:58.125Z,65.4
2019-06-27T06:29:56.069Z,64.5
2019-06-27T06:34:56.061Z,63.9
2019-06-27T06:39:55.889Z,62.4
2019-06-27T06:44:56.184Z,62.3
2019-06-27T06:49:55.776Z,61.9
2019-06-27T06:54:56.120Z,62
2019-06-27T06:59:56.017Z,62.2
2019-06-27T07:04:56.195Z,62.2
2019-06-27T07:09:56.070Z,61.3
2019-06-27T07:14:56.128Z,61.6
2019-06-27T07:19:57.583Z,61.1
2019-06-27T07:24:55.838Z,61.8
2019-06-27T07:29:55.998Z,60.2
2019-06-27T07:34:56.010Z,59.4
2019-06-27T07:39:56.121Z,59.5
2019-06-27T07:44:55.960Z,59.3
2019-06-27T07:49:56.106Z,58.1
2019-06-27T07:54:56.270Z,59.2
2019-06-27T07:59:56.083Z,58.6
2019-06-27T08:04:56.055Z,57.9
2019-06-27T08:09:55.784Z,57.8
2019-06-27T08:14:56.167Z,57
2019-06-27T08:19:55.912Z,57.6
2019-06-27T08:24:55.939Z,57
2019-06-27T08:29:56.081Z,57.1
2019-06-27T08:34:55.937Z,56.3
2019-06-27T08:39:56.093Z,55.9
2019-06-27T08:44:56.133Z,55.2
2019-06-27T08:49:56.060Z,55.2
2019-06-27T08:54:55.874Z,54.8
2019-06-27T08:59:55.629Z,54.6
2019-06-27T09:04:55.687Z,54.1
2019-06-27T09:09:55.653Z,54.1
2019-06-27T09:14:55.736Z,54.4
2019-06-27T09:19:55.667Z,53.8
2019-06-27T09:24:56.452Z,53.9
2019-06-27T09:29:55.915Z,53.2
2019-06-27T09:34:55.601Z,52.8
2019-06-27T09:39:55.693Z,52.9
2019-06-27T09:44:56.001Z,51.8
2019-06-27T09:49:55.837Z,51.3
2019-06-27T09:54:55.810Z,51.5
2019-06-27T09:59:55.524Z,52.2
2019-06-27T10:04:55.826Z,51.8
2019-06-27T10:09:55.650Z,51.1
2019-06-27T10:14:55.867Z,50.9
2019-06-27T10:19:55.763Z,50.2
2019-06-27T10:24:55.608Z,49.8
2019-06-27T10:29:55.569Z,49.5
2019-06-27T10:34:55.798Z,49.5
2019-06-27T10:39:55.737Z,50.6
2019-06-27T10:44:55.694Z,50.1
2019-06-27T10:49:55.756Z,50
2019-06-27T10:54:55.751Z,51
2019-06-27T10:59:55.692Z,51.3
2019-06-27T11:04:55.801Z,51.3
2019-06-27T11:09:55.963Z,50.4
2019-06-27T11:14:59.581Z,50.6
2019-06-27T11:19:55.667Z,50.9
2019-06-27T11:24:55.547Z,50.9
2019-06-27T11:29:55.619Z,50.3
2019-06-27T11:34:55.492Z,50
2019-06-27T11:39:55.923Z,50.9
2019-06-27T11:44:55.479Z,50.5
2019-06-27T11:49:55.952Z,51.1
2019-06-27T11:54:55.654Z,51.9
2019-06-27T11:59:55.890Z,51.2
2019-06-27T12:04:55.763Z,51.3
2019-06-27T12:09:55.566Z,51.5
2019-06-27T12:14:55.764Z,50.9
2019-06-27T12:19:55.615Z,51.3
2019-06-27T12:24:55.630Z,52.5
2019-06-27T12:29:55.818Z,52.5
2019-06-27T12:34:55.510Z,52
2019-06-27T12:39:55.809Z,51.4
2019-06-27T12:44:55.436Z,52.4
2019-06-27T12:50:02.024Z,51.7
2019-06-27T12:54:55.777Z,50.4
2019-06-27T12:59:55.592Z,50.8
2019-06-27T13:04:55.517Z,50.2
2019-06-27T13:09:55.900Z,49.8
2019-06-27T13:14:55.400Z,49.5
2019-06-27T13:19:55.556Z,49.6
2019-06-27T13:24:55.639Z,48.2
2019-06-27T13:29:55.654Z,47.3
2019-06-27T13:34:55.465Z,47.5
2019-06-27T13:39:55.639Z,45.1
2019-06-27T13:44:55.622Z,47
2019-06-27T13:49:55.905Z,46.3
2019-06-27T13:54:55.722Z,46.5
2019-06-27T13:59:55.524Z,43.8
2019-06-27T14:04:57.447Z,44.4
2019-06-27T14:09:57.258Z,43
2019-06-27T14:14:59.902Z,44.7
2019-06-27T14:19:55.302Z,42.5
2019-06-27T14:24:55.229Z,38.7
2019-06-27T14:29:56.701Z,40.1
2019-06-27T14:34:55.229Z,40.8
2019-06-27T14:39:56.667Z,37.8
2019-06-27T14:44:55.410Z,37.2
2019-06-27T14:49:55.135Z,37.9
2019-06-27T14:54:55.410Z,41.2
2019-06-27T14:59:55.334Z,39.5
2019-06-27T15:04:55.348Z,37
2019-06-27T15:09:55.621Z,38.6
2019-06-27T15:14:55.105Z,38.9
2019-06-27T15:19:58.495Z,37.5
2019-06-27T15:24:55.205Z,36.7
2019-06-27T15:29:55.539Z,34.9
2019-06-27T15:34:55.221Z,37.6
2019-06-27T15:39:55.677Z,41.3
2019-06-27T15:44:55.026Z,44.3
2019-06-27T15:49:55.193Z,45.7
2019-06-27T15:54:55.245Z,47.6
2019-06-27T15:59:55.626Z,49.1
2019-06-27T16:04:55.053Z,49.6
2019-06-27T16:09:55.410Z,49.8
2019-06-27T16:14:55.100Z,48.3
2019-06-27T16:19:55.409Z,50.3
2019-06-27T16:24:55.190Z,48.9
2019-06-27T16:29:55.561Z,49.8
2019-06-27T16:34:55.471Z,51
2019-06-27T16:39:55.200Z,51.2
2019-06-27T16:44:55.106Z,51.9
2019-06-27T16:49:54.933Z,52.3
2019-06-27T16:54:55.263Z,53
2019-06-27T16:59:55.202Z,53.3
2019-06-27T17:04:55.166Z,52.6
2019-06-27T17:09:55.180Z,52.8
2019-06-27T17:14:55.115Z,52
2019-06-27T17:19:55.212Z,52.1
2019-06-27T17:24:55.215Z,52.6
2019-06-27T17:29:55.349Z,53.3
2019-06-27T17:34:54.959Z,53.5
2019-06-27T17:39:55.202Z,55.2
2019-06-27T17:44:55.388Z,55.3
2019-06-27T17:49:55.133Z,55.3
2019-06-27T17:54:55.097Z,55.4
2019-06-27T17:59:54.979Z,55.5
2019-06-27T18:04:54.968Z,55.8
2019-06-27T18:09:55.205Z,55.8
2019-06-27T18:14:55.023Z,55.6
2019-06-27T18:19:54.912Z,55.7
2019-06-27T18:24:55.030Z,55.7
2019-06-27T18:29:55.231Z,56.1
2019-06-27T18:34:55.412Z,55.6
2019-06-27T18:39:55.099Z,56.4
2019-06-27T18:44:54.861Z,56.9
2019-06-27T18:49:55.261Z,57.4
2019-06-27T18:54:55.067Z,57.8
2019-06-27T18:59:54.795Z,58.1
2019-06-27T19:04:55.275Z,57.9
2019-06-27T19:09:54.715Z,58.5
2019-06-27T19:14:54.726Z,58.2
2019-06-27T19:19:54.753Z,58.1
2019-06-27T19:24:54.665Z,58.6
2019-06-27T19:29:55.142Z,59.2
2019-06-27T19:34:54.948Z,59.7
2019-06-27T19:39:54.788Z,60
2019-06-27T19:44:54.734Z,59.8
2019-06-27T19:49:54.685Z,59.9
2019-06-27T19:54:55.056Z,60.4
2019-06-27T19:59:54.823Z,60.2
2019-06-27T20:04:54.838Z,60.8
2019-06-27T20:09:54.790Z,61.3
2019-06-27T20:14:54.848Z,62.1
2019-06-27T20:19:54.739Z,62.5
2019-06-27T20:24:54.656Z,62.5
2019-06-27T20:29:54.949Z,63.1
2019-06-27T20:34:54.821Z,63.4
2019-06-27T20:39:54.804Z,63.8
2019-06-27T20:44:54.936Z,64
2019-06-27T20:49:54.702Z,64.2
2019-06-27T20:54:55.023Z,64.2
2019-06-27T20:59:54.605Z,64.3
2019-06-27T21:04:54.503Z,63.7
2019-06-27T21:09:54.483Z,63.9
2019-06-27T21:14:54.572Z,64.3
2019-06-27T21:19:54.995Z,64.9
2019-06-27T21:24:54.526Z,65.2
2019-06-27T21:29:54.898Z,65.2
2019-06-27T21:34:54.495Z,65
2019-06-27T21:39:54.880Z,66.2
2019-06-27T21:44:54.627Z,66.5
2019-06-27T21:49:54.589Z,66.2
2019-06-27T21:54:54.572Z,66.2
2019-06-27T21:59:55.175Z,66.3
2019-06-27T22:04:54.529Z,66.6
2019-06-27T22:09:54.563Z,67
2019-06-27T22:14:55.021Z,67
2019-06-27T22:19:54.905Z,66.4
2019-06-27T22:24:54.606Z,66.5
2019-06-27T22:29:54.584Z,67.1
2019-06-27T22:34:54.495Z,67.1
2019-06-27T22:39:54.837Z,66.5
2019-06-27T22:44:54.762Z,66.9
2019-06-27T22:49:54.547Z,67.4
2019-06-27T22:54:54.430Z,67.3
2019-06-27T22:59:54.638Z,67.2
2019-06-27T23:04:54.648Z,67.6
2019-06-27T23:09:57.218Z,67.5
2019-06-27T23:14:54.722Z,67.6
2019-06-27T23:19:55.043Z,67.8
2019-06-27T23:24:54.538Z,67.9
2019-06-27T23:29:54.827Z,67.5
2019-06-27T23:34:54.703Z,68
2019-06-27T23:39:54.615Z,67.7
2019-06-27T23:44:54.533Z,67.6
2019-06-27T23:49:54.903Z,67.2
2019-06-27T23:54:54.861Z,67.3
2019-06-27T23:59:54.772Z,67.2
